Search another route:           

Weather sensor information for Interstate 80 is as follows:

 
Nearest Town Weather Station Name Milepost Date / Time Surface Status Surface Temp Precip Intensity Wind Avg Wind Gust Dir Dewpoint Humidity Air Temp Visibility
Evanston Evanston POE .06 Mar 07, 2021 10:16 am Dry 34.3°F None   0 mph 5 mph S 23.0°F 69% 32.0°F > 1/2 mi
Evanston Evanston 4.2 Mar 07, 2021 10:16 am N/A   None None 1 mph 3 mph SW 24.8°F 57% 39.2°F > 1/2 mi
Evanston Bear River Drive 6.94 Mar 07, 2021 10:16 am Dry 37.2°F None   0 mph 3 mph SW 26.6°F 65% 37.4°F > 1/2 mi
Evanston Painter 10.16 Mar 07, 2021 10:16 am Dry 50.9°F None None 2 mph 4 mph NE 23.0°F 52% 39.2°F > 1/2 mi
Evanston First Divide 13.86 Mar 07, 2021 10:16 am     None None 3 mph 5 mph W 19.4°F 44% 39.2°F > 1/2 mi
Evanston US 189 Interchange 17.66 Mar 07, 2021 10:16 am Dry 50.4°F None None 0 mph 0 mph E 23.0°F 56% 37.4°F > 1/2 mi
Evanston Coal Road 20.95 Mar 07, 2021 10:16 am Dry 54.5°F None None 3 mph 5 mph S 21.2°F 57% 35.6°F > 1/2 mi
Evanston Leroy 23.35 Mar 07, 2021 10:16 am Dry 53.6°F None None 2 mph 4 mph E 23.0°F 52% 39.2°F > 1/2 mi
Evanston French 27.6 Mar 07, 2021 10:16 am Dry 52.5°F None None 2 mph 5 mph W 23.0°F 56% 37.4°F > 1/2 mi
Lyman Church Butte 52.65 Mar 07, 2021 10:16 am N/A   None None 2 mph 5 mph SW 21.2°F 51% 39.2°F > 1/2 mi
Granger Peru Hill 82.31 Mar 07, 2021 10:16 am     None None 4 mph 6 mph S 23.0°F 48% 41.0°F > 1/2 mi
Rock Springs Green River Tunnel 90.5 Mar 07, 2021 10:16 am Dry 58.1°F None None 2 mph 5 mph SW 23.0°F 48% 41.0°F > 1/2 mi
Rock Springs Rock Springs West 97.9 Mar 07, 2021 10:16 am N/A   None None 8 mph 11 mph W 21.2°F 45% 41.0°F > 1/2 mi
Rock Springs Baxter Road 111.5 Mar 07, 2021 10:16 am     None None 7 mph 9 mph S 21.2°F 41% 42.8°F > 1/2 mi
Rock Springs Mile Marker 124.5 124.5 Mar 07, 2021 10:16 am N/A   None None 6 mph 9 mph S 23.0°F 50% 39.2°F > 1/2 mi
Rock Springs Point of Rocks 129.8 Mar 07, 2021 10:16 am N/A   None None 8 mph 12 mph N 23.0°F 49% 41.0°F > 1/2 mi
Patrick Draw Bitter Creek 141.83 Mar 07, 2021 10:16 am Dry 55.9°F None None 9 mph 11 mph N 17.6°F 41% 39.2°F > 1/2 mi
Patrick Draw Tipton 156.72 Mar 07, 2021 10:16 am Dry 58.8°F None None 14 mph 19 mph SW 21.2°F 42% 42.8°F > 1/2 mi
Wamsutter Continental Divide 184.3 Mar 07, 2021 10:16 am     None None 11 mph 13 mph W 21.2°F 46% 41.0°F > 1/2 mi
Rawlins Sinclair 221.7 Mar 07, 2021 10:16 am N/A   None None 13 mph 19 mph W 17.6°F 32% 46.4°F > 1/2 mi
Rawlins Walcott Junction 234.66 Mar 07, 2021 10:16 am N/A   None None 12 mph 17 mph SW 21.2°F 39% 44.6°F > 1/2 mi
Elk Mountain Dana Ridge 244.8 Mar 07, 2021 10:16 am Dry 59.5°F None None 17 mph 21 mph SW 19.4°F 42% 41.0°F > 1/2 mi
Elk Mountain Mile Marker 249.1 249.1 Mar 07, 2021 10:16 am N/A 57.2°F None None 17 mph 23 mph W 17.6°F 38% 42.8°F > 1/2 mi
Elk Mountain Halleck Ridge 252.16 Mar 07, 2021 10:16 am N/A   None None 19 mph 23 mph SW 19.4°F 42% 39.2°F > 1/2 mi
Elk Mountain Elk Mountain 256.17 Mar 07, 2021 10:16 am Trace Moisture 62.4°F None None 14 mph 25 mph S 19.4°F 37% 42.8°F > 1/2 mi
Elk Mountain County Road 402 262 Mar 07, 2021 10:16 am Dry 61.0°F None None 23 mph 34 mph S 17.6°F 37% 42.8°F > 1/2 mi
Elk Mountain Wagonhound 266.58 Mar 07, 2021 10:16 am Dry 53.1°F None None 16 mph 21 mph SW 21.2°F 45% 41.0°F > 1/2 mi
Arlington Foote Creek 269.5 Mar 07, 2021 10:16 am N/A   None              
Arlington Arlington 271.8 Mar 07, 2021 10:16 am Dry 63.7°F None None 22 mph 27 mph W 15.8°F 28% 46.4°F > 1/2 mi
Arlington Arlington East 273.85 Mar 07, 2021 10:16 am Dry 64.9°F None None 11 mph 22 mph SW 14.0°F 27% 46.4°F > 1/2 mi
Arlington Cooper Cove 279.36 Mar 07, 2021 10:16 am Dry 52.0°F None None 8 mph 16 mph S 14.0°F 25% 48.2°F > 1/2 mi
Laramie Strouss Hill 283.75 Mar 07, 2021 10:16 am Dry 65.3°F None None 7 mph 10 mph N 15.8°F 28% 46.4°F > 1/2 mi
Laramie Quealy Dome 289.5 Mar 07, 2021 10:16 am Dry 67.6°F None None 13 mph 20 mph SW 14.0°F 23% 50.0°F > 1/2 mi
Laramie Herrick Lane 297.66 Mar 07, 2021 10:16 am Dry 63.7°F None None 17 mph 25 mph S 14.0°F 23% 50.0°F > 1/2 mi
Laramie Summit East 325.8 Mar 07, 2021 10:16 am Dry 63.7°F None None 17 mph 23 mph SW 12.2°F 27% 44.6°F > 1/2 mi
Laramie Vedauwoo 329.4 Mar 07, 2021 10:16 am Dry 60.6°F None None 20 mph 25 mph W 12.2°F 24% 46.4°F > 1/2 mi
Laramie Lone Tree 333.32 Mar 07, 2021 10:16 am Dry 59.2°F None None 19 mph 26 mph SW 10.4°F 21% 48.2°F > 1/2 mi
Cheyenne Buford East 336.1 Mar 07, 2021 10:16 am Dry 57.2°F None None 9 mph 16 mph S 12.2°F 23% 48.2°F > 1/2 mi
Cheyenne Remount Road 340.5 Mar 07, 2021 10:16 am Dry 57.4°F None None 25 mph 30 mph SW 12.2°F 22% 50.0°F > 1/2 mi
Cheyenne Otto 347.69 Mar 07, 2021 10:16 am Dry 63.1°F None None 13 mph 24 mph NW 12.2°F 19% 53.6°F > 1/2 mi
Cheyenne MP 353 353 Mar 07, 2021 10:16 am Dry 66.7°F None None 12 mph 18 mph S 12.2°F 18% 55.4°F > 1/2 mi
Cheyenne Cheyenne East 373 Mar 07, 2021 10:16 am Dry 74.5°F None None 11 mph 16 mph W 14.0°F 16% 60.8°F > 1/2 mi

Contact Us
Copyright 2021 Disclaimer Privacy Policy Media